Weather at Corrigin Airport

Public forecast

Using degrees Celsius for public forecast. Weather courtesy of forecast.io.

Closest aviation weather report (METAR) to Corrigin Airport

Closest report is Perth International Airport, 97.5 nm (180.7 km) WNW. Retrieved 2022/07/01 02:00 UTC (6 minutes ago):

YPPH 010200Z 06010KT CAVOK 13/07 Q1031

Closest aviation forecast (TAF) to Corrigin Airport

Closest forecast is Perth International Airport, 97.5 nm (180.7 km) WNW. Retrieved 2022-07-01 00:36 UTC (1 hour ago):

TAF YPPH 302303Z 0100/0206 05009KT CAVOK FM010900 09007KT 9999 FEW035 FM020300 03008KT 9999 FEW035